createdAt,value
2018-01-13T00:00:54.738Z,5.09
2018-01-13T00:01:54.719Z,5.09
2018-01-13T00:02:54.698Z,5.15
2018-01-13T00:03:54.713Z,5.09
2018-01-13T00:04:54.670Z,5.09
2018-01-13T00:05:54.686Z,5.09
2018-01-13T00:06:54.646Z,5.09
2018-01-13T00:07:54.642Z,5.04
2018-01-13T00:08:54.635Z,5.24
2018-01-13T00:09:54.590Z,5.18
2018-01-13T00:10:54.569Z,5.04
2018-01-13T00:11:54.559Z,5.17
2018-01-13T00:12:54.543Z,5.12
2018-01-13T00:13:54.525Z,5.12
2018-01-13T00:14:54.532Z,5.15
2018-01-13T00:15:54.495Z,5.15
2018-01-13T00:16:54.494Z,5.15
2018-01-13T00:17:54.463Z,5.18
2018-01-13T00:18:54.439Z,5.17
2018-01-13T00:19:54.426Z,5.18
2018-01-13T00:20:54.413Z,5.18
2018-01-13T00:21:54.395Z,5.12
2018-01-13T00:22:54.387Z,5.07
2018-01-13T00:23:54.370Z,5.07
2018-01-13T00:24:54.350Z,5.04
2018-01-13T00:25:54.365Z,5.06
2018-01-13T00:26:54.320Z,4.96
2018-01-13T00:27:54.297Z,4.91
2018-01-13T00:28:54.282Z,5.00
2018-01-13T00:29:54.269Z,4.88
2018-01-13T00:30:54.254Z,4.94
2018-01-13T00:31:54.237Z,4.94
2018-01-13T00:32:54.225Z,4.91
2018-01-13T00:33:54.203Z,4.91
2018-01-13T00:34:54.188Z,4.85
2018-01-13T00:35:54.170Z,4.86
2018-01-13T00:36:54.185Z,4.80
2018-01-13T00:37:54.139Z,4.88
2018-01-13T00:38:54.132Z,4.77
2018-01-13T00:39:54.114Z,4.80
2018-01-13T00:40:54.090Z,4.75
2018-01-13T00:41:54.131Z,4.75
2018-01-13T00:42:54.064Z,4.73
2018-01-13T00:43:54.041Z,4.80
2018-01-13T00:44:54.028Z,4.82
2018-01-13T00:45:54.017Z,4.78
2018-01-13T00:46:54.000Z,4.78
2018-01-13T00:47:53.981Z,4.73
2018-01-13T00:48:53.964Z,4.84
2018-01-13T00:49:53.945Z,4.84
2018-01-13T00:50:53.938Z,4.82
2018-01-13T00:51:53.920Z,4.89
2018-01-13T00:52:53.926Z,4.78
2018-01-13T00:53:53.888Z,4.80
2018-01-13T00:54:53.864Z,4.84
2018-01-13T00:55:53.849Z,4.84
2018-01-13T00:56:53.841Z,4.75
2018-01-13T00:57:53.846Z,4.80
2018-01-13T00:58:53.805Z,4.72
2018-01-13T00:59:53.788Z,4.80
2018-01-13T01:00:53.779Z,4.75
2018-01-13T01:01:53.754Z,4.78
2018-01-13T01:02:53.741Z,4.84
2018-01-13T01:03:53.722Z,4.75
2018-01-13T01:04:53.705Z,4.75
2018-01-13T01:05:53.696Z,4.85
2018-01-13T01:06:53.672Z,4.80
2018-01-13T01:07:53.657Z,4.73
2018-01-13T01:08:53.666Z,4.78
2018-01-13T01:09:53.631Z,4.77
2018-01-13T01:10:53.615Z,4.82
2018-01-13T01:11:53.603Z,4.84
2018-01-13T01:12:53.582Z,4.78
2018-01-13T01:13:53.586Z,4.88
2018-01-13T01:14:53.552Z,4.88
2018-01-13T01:15:53.538Z,4.94
2018-01-13T01:16:53.517Z,4.86
2018-01-13T01:17:53.496Z,4.97
2018-01-13T01:18:53.482Z,5.06
2018-01-13T01:19:53.464Z,4.99
2018-01-13T01:20:53.452Z,5.02
2018-01-13T01:21:53.440Z,5.00
2018-01-13T01:22:53.423Z,5.06
2018-01-13T01:23:53.407Z,5.02
2018-01-13T01:24:53.410Z,5.06
2018-01-13T01:25:53.366Z,5.06
2018-01-13T01:26:53.348Z,5.00
2018-01-13T01:27:53.335Z,4.97
2018-01-13T01:28:53.321Z,5.02
2018-01-13T01:29:53.303Z,5.00
2018-01-13T01:30:53.300Z,5.00
2018-01-13T01:31:53.278Z,5.02
2018-01-13T01:32:53.264Z,5.03
2018-01-13T01:33:53.254Z,5.04
2018-01-13T01:34:53.221Z,5.03
2018-01-13T01:35:53.237Z,5.03
2018-01-13T01:36:53.195Z,5.06
2018-01-13T01:37:53.182Z,5.00
2018-01-13T01:38:53.164Z,5.00
2018-01-13T01:39:53.143Z,5.07
2018-01-13T01:40:53.124Z,5.03
2018-01-13T01:41:53.118Z,5.00
2018-01-13T01:42:53.097Z,5.04
2018-01-13T01:43:53.078Z,5.04
2018-01-13T01:44:53.068Z,5.04
2018-01-13T01:45:53.044Z,5.00
2018-01-13T01:46:53.064Z,5.02
2018-01-13T01:47:53.014Z,5.02
2018-01-13T01:48:53.005Z,5.06
2018-01-13T01:49:52.980Z,5.06
2018-01-13T01:50:52.971Z,5.06
2018-01-13T01:51:52.949Z,5.03
2018-01-13T01:52:52.939Z,5.06
2018-01-13T01:53:52.921Z,5.03
2018-01-13T01:54:52.905Z,5.04
2018-01-13T01:55:52.891Z,5.03
2018-01-13T01:56:52.868Z,5.04
2018-01-13T01:57:52.858Z,4.99
2018-01-13T01:58:52.834Z,5.06
2018-01-13T01:59:52.820Z,5.06
2018-01-13T02:00:52.802Z,4.96
2018-01-13T02:01:52.814Z,5.10
2018-01-13T02:02:52.777Z,4.96
2018-01-13T02:03:52.761Z,4.99
2018-01-13T02:04:52.743Z,5.00
2018-01-13T02:05:52.729Z,5.09
2018-01-13T02:06:52.708Z,5.00
2018-01-13T02:07:52.692Z,5.09
2018-01-13T02:08:52.678Z,5.00
2018-01-13T02:09:52.664Z,5.12
2018-01-13T02:10:52.646Z,5.06
2018-01-13T02:11:52.626Z,5.02
2018-01-13T02:12:52.639Z,5.00
2018-01-13T02:13:52.601Z,5.00
2018-01-13T02:14:52.585Z,5.00
2018-01-13T02:15:52.562Z,5.03
2018-01-13T02:16:52.546Z,5.04
2018-01-13T02:17:52.537Z,5.04
2018-01-13T02:18:52.515Z,4.92
2018-01-13T02:19:52.503Z,5.00
2018-01-13T02:20:52.480Z,4.91
2018-01-13T02:21:52.472Z,4.92
2018-01-13T02:22:52.448Z,4.92
2018-01-13T02:23:52.468Z,4.84
2018-01-13T02:24:52.419Z,4.91
2018-01-13T02:25:52.401Z,4.85
2018-01-13T02:26:52.392Z,4.84
2018-01-13T02:27:52.373Z,4.84
2018-01-13T02:28:52.361Z,4.85
2018-01-13T02:29:52.345Z,4.80
2018-01-13T02:30:52.323Z,4.84
2018-01-13T02:31:52.307Z,4.73
2018-01-13T02:32:52.290Z,4.78
2018-01-13T02:33:52.272Z,4.73
2018-01-13T02:34:52.285Z,4.77
2018-01-13T02:35:52.243Z,4.72
2018-01-13T02:36:52.231Z,4.80
2018-01-13T02:37:52.218Z,4.77
2018-01-13T02:38:52.192Z,4.67
2018-01-13T02:39:52.182Z,4.67
2018-01-13T02:40:52.161Z,4.84
2018-01-13T02:41:52.155Z,4.80
2018-01-13T02:42:52.132Z,4.78
2018-01-13T02:43:52.118Z,4.78
2018-01-13T02:44:52.094Z,4.75
2018-01-13T02:45:52.112Z,4.82
2018-01-13T02:46:52.064Z,4.82
2018-01-13T02:47:52.048Z,4.78
2018-01-13T02:48:52.034Z,4.88
2018-01-13T02:49:52.016Z,4.80
2018-01-13T02:50:52.008Z,4.84
2018-01-13T02:51:51.984Z,4.84
2018-01-13T02:52:51.974Z,4.80
2018-01-13T02:53:51.952Z,4.84
2018-01-13T02:54:51.941Z,4.84
2018-01-13T02:55:51.918Z,4.92
2018-01-13T02:56:51.935Z,4.88
2018-01-13T02:57:51.893Z,4.92
2018-01-13T02:58:51.878Z,4.88
2018-01-13T02:59:51.860Z,4.92
2018-01-13T03:00:51.840Z,4.88
2018-01-13T03:01:51.821Z,4.91
2018-01-13T03:02:51.811Z,4.89
2018-01-13T03:03:51.790Z,4.92
2018-01-13T03:04:51.781Z,4.86
2018-01-13T03:05:51.860Z,4.89
2018-01-13T03:06:51.741Z,4.92
2018-01-13T03:07:51.754Z,4.94
2018-01-13T03:08:51.707Z,4.97
2018-01-13T03:09:51.692Z,4.96
2018-01-13T03:10:51.676Z,4.96
2018-01-13T03:11:51.668Z,5.02
2018-01-13T03:12:51.677Z,5.04
2018-01-13T03:13:51.630Z,5.06
2018-01-13T03:14:51.617Z,5.02
2018-01-13T03:15:51.602Z,5.02
2018-01-13T03:16:51.589Z,5.00
2018-01-13T03:17:51.565Z,5.03
2018-01-13T03:18:51.554Z,5.10
2018-01-13T03:19:51.533Z,5.06
2018-01-13T03:20:51.521Z,5.12
2018-01-13T03:21:51.502Z,5.04
2018-01-13T03:22:51.484Z,5.12
2018-01-13T03:23:51.502Z,5.18
2018-01-13T03:24:51.461Z,5.18
2018-01-13T03:25:51.436Z,5.18
2018-01-13T03:26:51.420Z,5.25
2018-01-13T03:27:51.413Z,5.15
2018-01-13T03:28:51.390Z,5.13
2018-01-13T03:29:51.377Z,5.17
2018-01-13T03:30:51.363Z,5.13
2018-01-13T03:31:51.346Z,5.13
2018-01-13T03:32:51.332Z,5.20
2018-01-13T03:33:51.316Z,5.17
2018-01-13T03:34:51.318Z,5.20
2018-01-13T03:35:51.274Z,5.18
2018-01-13T03:36:51.260Z,5.20
2018-01-13T03:37:51.252Z,5.20
2018-01-13T03:38:51.228Z,5.28
2018-01-13T03:39:51.218Z,5.21
2018-01-13T03:40:51.198Z,5.30
2018-01-13T03:41:51.190Z,5.24
2018-01-13T03:42:51.165Z,5.31
2018-01-13T03:43:51.156Z,5.30
2018-01-13T03:44:51.139Z,5.30
2018-01-13T03:45:51.143Z,5.36
2018-01-13T03:46:51.100Z,5.27
2018-01-13T03:47:51.086Z,5.33
2018-01-13T03:48:51.076Z,5.36
2018-01-13T03:49:51.056Z,5.31
2018-01-13T03:50:51.056Z,5.31
2018-01-13T03:51:51.030Z,5.25
2018-01-13T03:52:51.012Z,5.38
2018-01-13T03:53:50.998Z,5.36
2018-01-13T03:54:50.989Z,5.39
2018-01-13T03:55:50.984Z,5.36
2018-01-13T03:56:50.946Z,5.36
2018-01-13T03:57:50.933Z,5.31
2018-01-13T03:58:50.920Z,5.36
2018-01-13T03:59:50.895Z,5.27
2018-01-13T04:00:50.884Z,5.35
2018-01-13T04:01:50.883Z,5.31
2018-01-13T04:02:50.848Z,5.33
2018-01-13T04:03:50.836Z,5.28
2018-01-13T04:04:50.827Z,5.31
2018-01-13T04:05:50.801Z,5.27
2018-01-13T04:06:50.816Z,5.30
2018-01-13T04:07:50.775Z,5.28
2018-01-13T04:08:50.757Z,5.28
2018-01-13T04:09:50.743Z,5.28
2018-01-13T04:10:50.720Z,5.28
2018-01-13T04:11:50.712Z,5.17
2018-01-13T04:12:50.687Z,5.25
2018-01-13T04:13:50.676Z,5.25
2018-01-13T04:14:50.657Z,5.18
2018-01-13T04:15:50.646Z,5.27
2018-01-13T04:16:50.625Z,5.25
2018-01-13T04:17:50.646Z,5.10
2018-01-13T04:18:50.590Z,5.27
2018-01-13T04:19:50.576Z,5.18
2018-01-13T04:20:50.562Z,5.25
2018-01-13T04:21:50.552Z,5.21
2018-01-13T04:22:50.537Z,5.17
2018-01-13T04:23:50.522Z,5.12
2018-01-13T04:24:50.506Z,5.13
2018-01-13T04:25:50.482Z,5.21
2018-01-13T04:26:50.473Z,5.13
2018-01-13T04:27:50.457Z,5.13
2018-01-13T04:28:50.464Z,5.06
2018-01-13T04:29:50.423Z,5.09
2018-01-13T04:30:50.402Z,5.13
2018-01-13T04:31:50.387Z,5.06
2018-01-13T04:32:50.379Z,5.07
2018-01-13T04:33:50.386Z,5.12
2018-01-13T04:34:50.343Z,5.12
2018-01-13T04:35:50.322Z,5.09
2018-01-13T04:36:50.312Z,5.20
2018-01-13T04:37:50.300Z,5.15
2018-01-13T04:38:50.284Z,5.17
2018-01-13T04:39:50.261Z,5.18
2018-01-13T04:40:50.255Z,5.18
2018-01-13T04:41:50.233Z,5.22
2018-01-13T04:42:50.212Z,5.21
2018-01-13T04:43:50.197Z,5.22
2018-01-13T04:44:50.208Z,5.28
2018-01-13T04:45:50.166Z,5.33
2018-01-13T04:46:50.155Z,5.31
2018-01-13T04:47:50.144Z,5.40
2018-01-13T04:48:50.123Z,5.35
2018-01-13T04:49:50.101Z,5.38
2018-01-13T04:50:50.092Z,5.36
2018-01-13T04:51:50.070Z,5.42
2018-01-13T04:52:50.060Z,5.48
2018-01-13T04:53:50.037Z,5.48
2018-01-13T04:54:50.029Z,5.53
2018-01-13T04:55:50.035Z,5.42
2018-01-13T04:56:49.996Z,5.43
2018-01-13T04:57:49.977Z,5.46
2018-01-13T04:58:49.960Z,5.49
2018-01-13T04:59:49.942Z,5.53
2018-01-13T05:00:49.934Z,5.49
2018-01-13T05:01:49.911Z,5.48
2018-01-13T05:02:49.902Z,5.54
2018-01-13T05:03:49.884Z,5.58
2018-01-13T05:04:49.863Z,5.54
2018-01-13T05:05:49.852Z,5.48
2018-01-13T05:06:49.861Z,5.57
2018-01-13T05:07:49.823Z,5.65
2018-01-13T05:08:49.806Z,5.68
2018-01-13T05:09:49.791Z,5.67
2018-01-13T05:10:49.767Z,5.74
2018-01-13T05:11:49.786Z,5.75
2018-01-13T05:12:49.746Z,5.65
2018-01-13T05:13:49.726Z,5.76
2018-01-13T05:14:49.720Z,5.78
2018-01-13T05:15:49.701Z,5.76
2018-01-13T05:16:49.675Z,5.81
2018-01-13T05:17:49.683Z,5.67
2018-01-13T05:18:49.651Z,5.74
2018-01-13T05:19:49.642Z,5.79
2018-01-13T05:20:49.612Z,5.71
2018-01-13T05:21:49.606Z,5.79
2018-01-13T05:22:49.588Z,5.83
2018-01-13T05:23:49.568Z,5.83
2018-01-13T05:24:49.552Z,5.85
2018-01-13T05:25:49.541Z,5.75
2018-01-13T05:26:49.521Z,5.81
2018-01-13T05:27:49.501Z,5.75
2018-01-13T05:28:49.513Z,5.72
2018-01-13T05:29:49.478Z,5.72
2018-01-13T05:30:49.455Z,5.72
2018-01-13T05:31:49.446Z,5.72
2018-01-13T05:32:49.422Z,5.78
2018-01-13T05:33:49.443Z,5.71
2018-01-13T05:34:49.391Z,5.74
2018-01-13T05:35:49.381Z,5.68
2018-01-13T05:36:49.368Z,5.72
2018-01-13T05:37:49.352Z,5.65
2018-01-13T05:38:49.335Z,5.65
2018-01-13T05:39:49.324Z,5.74
2018-01-13T05:40:49.297Z,5.67
2018-01-13T05:41:49.281Z,5.63
2018-01-13T05:42:49.265Z,5.68
2018-01-13T05:43:49.250Z,5.57
2018-01-13T05:44:49.264Z,5.64
2018-01-13T05:45:49.227Z,5.64
2018-01-13T05:46:49.207Z,5.48
2018-01-13T05:47:49.186Z,5.54
2018-01-13T05:48:49.171Z,5.58
2018-01-13T05:49:49.182Z,5.53
2018-01-13T05:50:49.148Z,5.56
2018-01-13T05:51:49.123Z,5.54
2018-01-13T05:52:49.104Z,5.57
2018-01-13T05:53:49.100Z,5.54
2018-01-13T05:54:49.083Z,5.63
2018-01-13T05:55:49.072Z,5.56
2018-01-13T05:56:49.046Z,5.54
2018-01-13T05:57:49.036Z,5.60
2018-01-13T05:58:49.014Z,5.54
2018-01-13T05:59:48.998Z,5.53
2018-01-13T06:00:49.011Z,5.58
2018-01-13T06:01:48.967Z,5.54
2018-01-13T06:02:48.958Z,5.49
2018-01-13T06:03:48.935Z,5.48
2018-01-13T06:04:48.932Z,5.51
2018-01-13T06:05:48.934Z,5.49
2018-01-13T06:06:48.894Z,5.42
2018-01-13T06:07:48.872Z,5.51
2018-01-13T06:08:48.855Z,5.42
2018-01-13T06:09:48.840Z,5.38
2018-01-13T06:10:48.829Z,5.45
2018-01-13T06:11:48.816Z,5.33
2018-01-13T06:12:48.798Z,5.36
2018-01-13T06:13:48.782Z,5.46
2018-01-13T06:14:48.760Z,5.40
2018-01-13T06:15:48.746Z,5.38
2018-01-13T06:16:48.756Z,5.51
2018-01-13T06:17:48.716Z,5.51
2018-01-13T06:18:48.703Z,5.39
2018-01-13T06:19:48.685Z,5.43
2018-01-13T06:20:48.672Z,5.56
2018-01-13T06:21:48.661Z,5.61
2018-01-13T06:22:48.651Z,5.53
2018-01-13T06:23:48.617Z,5.67
2018-01-13T06:24:48.609Z,5.67
2018-01-13T06:25:48.590Z,5.60
2018-01-13T06:26:48.575Z,5.71
2018-01-13T06:27:48.584Z,5.67
2018-01-13T06:28:48.545Z,5.64
2018-01-13T06:29:48.523Z,5.67
2018-01-13T06:30:48.511Z,5.68
2018-01-13T06:31:48.493Z,5.65
2018-01-13T06:32:48.477Z,5.68
2018-01-13T06:33:48.468Z,5.65
2018-01-13T06:34:48.446Z,5.56
2018-01-13T06:35:48.436Z,5.58
2018-01-13T06:36:48.413Z,5.61
2018-01-13T06:37:48.417Z,5.53
2018-01-13T06:38:48.405Z,5.49
2018-01-13T06:39:48.370Z,5.49
2018-01-13T06:40:48.355Z,5.54
2018-01-13T06:41:48.339Z,5.60
2018-01-13T06:42:48.322Z,5.61
2018-01-13T06:43:48.307Z,5.56
2018-01-13T06:44:48.289Z,5.49
2018-01-13T06:45:48.270Z,5.49
2018-01-13T06:46:48.253Z,5.53
2018-01-13T06:47:48.238Z,5.51
2018-01-13T06:48:48.221Z,5.60
2018-01-13T06:49:48.232Z,5.57
2018-01-13T06:50:48.194Z,5.63
2018-01-13T06:51:48.185Z,5.51
2018-01-13T06:52:48.162Z,5.57
2018-01-13T06:53:48.159Z,5.57
2018-01-13T06:54:48.124Z,5.57
2018-01-13T06:55:48.114Z,5.57
2018-01-13T06:56:48.100Z,5.61
2018-01-13T06:57:48.081Z,5.64
2018-01-13T06:58:48.063Z,5.65
2018-01-13T06:59:48.059Z,5.57
2018-01-13T07:00:48.067Z,5.64
2018-01-13T07:01:48.015Z,5.68
2018-01-13T07:02:47.997Z,5.65
2018-01-13T07:03:47.991Z,5.64
2018-01-13T07:04:47.966Z,5.68
2018-01-13T07:05:47.960Z,5.74
2018-01-13T07:06:47.942Z,5.75
2018-01-13T07:07:47.925Z,5.72
2018-01-13T07:08:47.905Z,5.78
2018-01-13T07:09:47.894Z,5.79
2018-01-13T07:10:47.869Z,5.74
2018-01-13T07:11:47.879Z,5.68
2018-01-13T07:12:47.850Z,5.76
2018-01-13T07:13:47.828Z,5.72
2018-01-13T07:14:47.816Z,5.76
2018-01-13T07:15:47.797Z,5.83
2018-01-13T07:16:47.804Z,5.91
2018-01-13T07:17:47.762Z,5.86
2018-01-13T07:18:47.745Z,5.86
2018-01-13T07:19:47.726Z,5.86
2018-01-13T07:20:47.715Z,5.94
2018-01-13T07:21:47.699Z,6.01
2018-01-13T07:22:47.689Z,5.89
2018-01-13T07:23:47.675Z,6.03
2018-01-13T07:24:47.657Z,6.04
2018-01-13T07:25:47.641Z,6.08
2018-01-13T07:26:47.618Z,6.04
2018-01-13T07:27:47.629Z,6.08
2018-01-13T07:28:47.593Z,6.06
2018-01-13T07:29:47.573Z,6.14
2018-01-13T07:30:47.555Z,6.11
2018-01-13T07:31:47.550Z,6.04
2018-01-13T07:32:47.532Z,6.11
2018-01-13T07:33:47.512Z,6.19
2018-01-13T07:34:47.490Z,6.19
2018-01-13T07:35:47.482Z,6.17
2018-01-13T07:36:47.459Z,6.28
2018-01-13T07:37:47.443Z,6.30
2018-01-13T07:38:47.451Z,6.31
2018-01-13T07:39:47.421Z,6.41
2018-01-13T07:40:47.403Z,6.40
2018-01-13T07:41:47.392Z,6.43
2018-01-13T07:42:47.364Z,6.48
2018-01-13T07:43:47.357Z,6.46
2018-01-13T07:44:47.337Z,6.37
2018-01-13T07:45:47.324Z,6.48
2018-01-13T07:46:47.306Z,6.48
2018-01-13T07:47:47.294Z,6.48
2018-01-13T07:48:47.274Z,6.41
2018-01-13T07:49:47.288Z,6.46
2018-01-13T07:50:47.243Z,6.38
2018-01-13T07:51:47.223Z,6.48
2018-01-13T07:52:47.217Z,6.55
2018-01-13T07:53:47.198Z,6.48
2018-01-13T07:54:47.179Z,6.55
2018-01-13T07:55:47.163Z,6.56
2018-01-13T07:56:47.148Z,6.52
2018-01-13T07:57:47.130Z,6.55
2018-01-13T07:58:47.120Z,6.59
2018-01-13T07:59:47.103Z,6.62
2018-01-13T08:00:47.112Z,6.62
2018-01-13T08:01:47.067Z,6.64
2018-01-13T08:02:47.056Z,6.64
2018-01-13T08:03:47.042Z,6.66
2018-01-13T08:04:47.052Z,6.69
2018-01-13T08:05:47.006Z,6.67
2018-01-13T08:06:46.988Z,6.62
2018-01-13T08:07:46.979Z,6.66
2018-01-13T08:08:46.957Z,6.62
2018-01-13T08:09:46.951Z,6.62
2018-01-13T08:10:46.931Z,6.71
2018-01-13T08:11:46.916Z,6.74
2018-01-13T08:12:46.898Z,6.70
2018-01-13T08:13:46.884Z,6.76
2018-01-13T08:14:46.862Z,6.74
2018-01-13T08:15:46.883Z,6.70
2018-01-13T08:16:46.831Z,6.70
2018-01-13T08:17:46.815Z,6.80
2018-01-13T08:18:46.802Z,6.88
2018-01-13T08:19:46.784Z,6.80
2018-01-13T08:20:46.778Z,6.80
2018-01-13T08:21:46.764Z,6.80
2018-01-13T08:22:46.744Z,6.74
2018-01-13T08:23:46.732Z,6.79
2018-01-13T08:24:46.712Z,6.81
2018-01-13T08:25:46.700Z,6.66
2018-01-13T08:26:46.702Z,6.79
2018-01-13T08:27:46.661Z,6.80
2018-01-13T08:28:46.648Z,6.79
2018-01-13T08:29:46.630Z,6.74
2018-01-13T08:30:46.621Z,6.85
2018-01-13T08:31:46.603Z,6.84
2018-01-13T08:32:46.587Z,6.85
2018-01-13T08:33:46.596Z,6.85
2018-01-13T08:34:46.559Z,6.85
2018-01-13T08:35:46.536Z,6.84
2018-01-13T08:36:46.523Z,6.84
2018-01-13T08:37:46.536Z,6.81
2018-01-13T08:38:46.500Z,6.84
2018-01-13T08:39:46.478Z,6.84
2018-01-13T08:40:46.463Z,6.87
2018-01-13T08:41:46.466Z,6.91
2018-01-13T08:42:46.424Z,6.87
2018-01-13T08:43:46.416Z,6.84
2018-01-13T08:44:46.398Z,6.85
2018-01-13T08:45:46.381Z,6.87
2018-01-13T08:46:46.392Z,6.85
2018-01-13T08:47:46.355Z,6.79
2018-01-13T08:48:46.336Z,6.85
2018-01-13T08:49:46.319Z,6.77
2018-01-13T08:50:46.309Z,6.74
2018-01-13T08:51:46.296Z,6.73
2018-01-13T08:52:46.280Z,6.71
2018-01-13T08:53:46.264Z,6.73
2018-01-13T08:54:46.243Z,6.70
2018-01-13T08:55:46.226Z,6.73
2018-01-13T08:56:46.209Z,6.66
2018-01-13T08:57:46.223Z,6.74
2018-01-13T08:58:46.177Z,6.71
2018-01-13T08:59:46.163Z,6.71
2018-01-13T09:00:46.154Z,6.70
2018-01-13T09:01:46.164Z,6.74
2018-01-13T09:02:46.122Z,6.80
2018-01-13T09:03:46.107Z,6.80
2018-01-13T09:04:46.093Z,6.76
2018-01-13T09:05:46.079Z,6.85
2018-01-13T09:06:46.055Z,6.85
2018-01-13T09:07:46.050Z,6.81
2018-01-13T09:08:46.023Z,6.84
2018-01-13T09:09:46.012Z,6.81
2018-01-13T09:10:45.994Z,6.95
2018-01-13T09:11:45.983Z,6.87
2018-01-13T09:12:45.989Z,6.85
2018-01-13T09:13:45.955Z,6.81
2018-01-13T09:14:45.934Z,6.81
2018-01-13T09:15:45.919Z,6.91
2018-01-13T09:16:45.900Z,6.84
2018-01-13T09:17:45.892Z,6.84
2018-01-13T09:18:45.871Z,6.89
2018-01-13T09:19:45.859Z,6.81
2018-01-13T09:20:45.836Z,6.89
2018-01-13T09:21:45.822Z,6.79
2018-01-13T09:22:45.806Z,6.88
2018-01-13T09:23:45.827Z,6.89
2018-01-13T09:24:45.781Z,6.85
2018-01-13T09:25:45.767Z,6.88
2018-01-13T09:26:45.750Z,6.91
2018-01-13T09:27:45.734Z,6.87
2018-01-13T09:28:45.722Z,6.84
2018-01-13T09:29:45.700Z,6.89
2018-01-13T09:30:45.685Z,6.92
2018-01-13T09:31:45.665Z,6.80
2018-01-13T09:32:45.659Z,6.79
2018-01-13T09:33:45.637Z,6.84
2018-01-13T09:34:45.648Z,6.81
2018-01-13T09:35:45.609Z,6.69
2018-01-13T09:36:45.599Z,6.71
2018-01-13T09:37:45.582Z,6.66
2018-01-13T09:38:45.590Z,6.76
2018-01-13T09:39:45.544Z,6.67
2018-01-13T09:40:45.529Z,6.73
2018-01-13T09:41:45.516Z,6.74
2018-01-13T09:42:45.524Z,6.85
2018-01-13T09:43:45.478Z,7.27
2018-01-13T09:44:45.473Z,7.53
2018-01-13T09:45:45.454Z,8.00
2018-01-13T09:46:45.437Z,7.98
2018-01-13T09:47:45.416Z,7.86
2018-01-13T09:48:45.434Z,7.77
2018-01-13T09:49:45.386Z,7.48
2018-01-13T09:50:45.378Z,7.30
2018-01-13T09:51:45.354Z,7.16
2018-01-13T09:52:45.346Z,7.12
2018-01-13T09:53:45.328Z,7.02
2018-01-13T09:54:45.312Z,6.87
2018-01-13T09:55:45.292Z,6.87
2018-01-13T09:56:45.288Z,6.81
2018-01-13T09:57:45.261Z,6.87
2018-01-13T09:58:45.255Z,6.84
2018-01-13T09:59:45.264Z,6.76
2018-01-13T10:00:45.226Z,6.74
2018-01-13T10:01:45.198Z,6.80
2018-01-13T10:02:45.197Z,6.74
2018-01-13T10:03:45.182Z,6.67
2018-01-13T10:04:45.329Z,6.73
2018-01-13T10:05:45.148Z,6.87
2018-01-13T10:06:45.129Z,6.85
2018-01-13T10:07:45.156Z,6.88
2018-01-13T10:08:45.269Z,6.81
2018-01-13T10:09:45.086Z,7.05
2018-01-13T10:10:45.233Z,6.98
2018-01-13T10:11:45.058Z,7.13
2018-01-13T10:12:45.037Z,7.21
2018-01-13T10:13:45.023Z,7.16
2018-01-13T10:14:45.041Z,7.39
2018-01-13T10:15:44.999Z,7.28
2018-01-13T10:16:45.061Z,7.31
2018-01-13T10:17:44.957Z,7.31
2018-01-13T10:18:44.948Z,7.30
2018-01-13T10:19:44.924Z,7.32
2018-01-13T10:20:44.930Z,7.43
2018-01-13T10:21:45.177Z,7.39
2018-01-13T10:22:45.143Z,7.25
2018-01-13T10:23:44.865Z,7.32
2018-01-13T10:24:44.918Z,7.30
2018-01-13T10:25:44.863Z,7.32
2018-01-13T10:26:44.835Z,7.31
2018-01-13T10:27:44.807Z,7.34
2018-01-13T10:28:44.796Z,7.32
2018-01-13T10:29:44.815Z,7.48
2018-01-13T10:30:44.760Z,7.45
2018-01-13T10:31:44.750Z,7.46
2018-01-13T10:32:44.728Z,7.43
2018-01-13T10:33:44.716Z,7.39
2018-01-13T10:34:44.698Z,7.45
2018-01-13T10:35:44.683Z,7.43
2018-01-13T10:36:44.703Z,7.40
2018-01-13T10:37:44.661Z,7.49
2018-01-13T10:38:44.643Z,7.55
2018-01-13T10:39:44.632Z,7.48
2018-01-13T10:40:44.616Z,7.58
2018-01-13T10:41:44.594Z,7.40
2018-01-13T10:42:44.587Z,7.48
2018-01-13T10:43:44.566Z,7.35
2018-01-13T10:44:44.557Z,7.57
2018-01-13T10:45:44.540Z,7.46
2018-01-13T10:46:44.579Z,7.67
2018-01-13T10:47:44.532Z,7.64
2018-01-13T10:48:44.494Z,7.64
2018-01-13T10:49:44.484Z,7.57
2018-01-13T10:50:44.467Z,7.67
2018-01-13T10:51:44.451Z,7.57
2018-01-13T10:52:44.461Z,7.57
2018-01-13T10:53:44.427Z,7.48
2018-01-13T10:54:44.411Z,7.52
2018-01-13T10:55:44.387Z,7.40
2018-01-13T10:56:44.381Z,7.45
2018-01-13T10:57:44.367Z,7.39
2018-01-13T10:58:44.346Z,7.35
2018-01-13T10:59:44.333Z,7.35
2018-01-13T11:00:44.314Z,7.32
2018-01-13T11:01:44.297Z,7.34
2018-01-13T11:02:44.324Z,7.39
2018-01-13T11:03:44.278Z,7.42
2018-01-13T11:04:44.260Z,7.34
2018-01-13T11:05:44.238Z,7.37
2018-01-13T11:06:44.232Z,7.39
2018-01-13T11:07:44.207Z,7.50
2018-01-13T11:08:44.204Z,7.42
2018-01-13T11:09:44.183Z,7.39
2018-01-13T11:10:44.173Z,7.40
2018-01-13T11:11:44.152Z,7.55
2018-01-13T11:12:44.136Z,7.49
2018-01-13T11:13:44.145Z,7.49
2018-01-13T11:14:44.107Z,7.53
2018-01-13T11:15:44.127Z,7.49
2018-01-13T11:16:44.082Z,7.53
2018-01-13T11:17:44.072Z,7.39
2018-01-13T11:18:44.082Z,7.40
2018-01-13T11:19:44.041Z,7.48
2018-01-13T11:20:44.017Z,7.48
2018-01-13T11:21:44.008Z,7.49
2018-01-13T11:22:43.996Z,7.55
2018-01-13T11:23:43.972Z,7.68
2018-01-13T11:24:44.117Z,7.60
2018-01-13T11:25:44.000Z,7.72
2018-01-13T11:26:44.060Z,7.72
2018-01-13T11:27:44.058Z,7.72
2018-01-13T11:28:43.920Z,7.71
2018-01-13T11:29:44.006Z,7.71
2018-01-13T11:30:43.917Z,7.80
2018-01-13T11:31:43.862Z,7.68
2018-01-13T11:32:43.845Z,7.82
2018-01-13T11:33:43.834Z,7.77
2018-01-13T11:34:43.809Z,7.82
2018-01-13T11:35:43.822Z,7.71
2018-01-13T11:36:43.781Z,7.71
2018-01-13T11:37:43.772Z,7.77
2018-01-13T11:38:43.751Z,7.72
2018-01-13T11:39:43.743Z,7.72
2018-01-13T11:40:43.724Z,7.69
2018-01-13T11:41:43.715Z,7.61
2018-01-13T11:42:43.691Z,7.68
2018-01-13T11:43:43.688Z,7.63
2018-01-13T11:44:43.664Z,7.55
2018-01-13T11:45:43.649Z,7.60
2018-01-13T11:46:43.659Z,7.58
2018-01-13T11:47:43.618Z,7.61
2018-01-13T11:48:43.613Z,7.57
2018-01-13T11:49:43.598Z,7.69
2018-01-13T11:50:43.584Z,7.60
2018-01-13T11:51:43.568Z,7.60
2018-01-13T11:52:43.552Z,7.67
2018-01-13T11:53:43.529Z,7.77
2018-01-13T11:54:43.520Z,7.79
2018-01-13T11:55:43.501Z,7.77
2018-01-13T11:56:43.488Z,7.69
2018-01-13T11:57:43.495Z,7.74
2018-01-13T11:58:43.483Z,7.79
2018-01-13T11:59:43.441Z,7.85
2018-01-13T12:00:43.428Z,7.92
2018-01-13T12:01:43.412Z,7.95
2018-01-13T12:02:43.420Z,7.97
2018-01-13T12:03:43.381Z,8.01
2018-01-13T12:04:43.375Z,8.02
2018-01-13T12:05:43.361Z,8.07
2018-01-13T12:06:43.347Z,8.10
2018-01-13T12:07:43.387Z,8.15
2018-01-13T12:08:43.307Z,8.12
2018-01-13T12:09:43.308Z,8.08
2018-01-13T12:10:43.285Z,8.12
2018-01-13T12:11:43.287Z,8.18
2018-01-13T12:12:43.268Z,8.18
2018-01-13T12:13:43.265Z,8.22
2018-01-13T12:14:43.228Z,8.38
2018-01-13T12:15:43.218Z,8.47
2018-01-13T12:16:43.199Z,8.41
2018-01-13T12:17:43.184Z,8.47
2018-01-13T12:18:43.182Z,8.59
2018-01-13T12:19:43.154Z,8.47
2018-01-13T12:20:43.134Z,8.59
2018-01-13T12:21:43.123Z,8.44
2018-01-13T12:22:43.105Z,8.59
2018-01-13T12:23:43.098Z,8.44
2018-01-13T12:24:43.080Z,8.48
2018-01-13T12:25:43.070Z,8.43
2018-01-13T12:26:43.070Z,8.53
2018-01-13T12:27:43.034Z,8.61
2018-01-13T12:28:43.029Z,8.63
2018-01-13T12:29:43.043Z,8.59
2018-01-13T12:30:43.001Z,8.71
2018-01-13T12:31:42.976Z,8.70
2018-01-13T12:32:42.962Z,8.59
2018-01-13T12:33:42.949Z,8.65
2018-01-13T12:34:42.942Z,8.58
2018-01-13T12:35:42.929Z,8.59
2018-01-13T12:36:42.920Z,8.50
2018-01-13T12:37:42.903Z,8.36
2018-01-13T12:38:42.885Z,8.22
2018-01-13T12:39:42.865Z,8.20
2018-01-13T12:40:42.937Z,8.10
2018-01-13T12:41:42.838Z,7.97
2018-01-13T12:42:42.823Z,7.93
2018-01-13T12:43:42.835Z,7.87
2018-01-13T12:44:42.807Z,7.85
2018-01-13T12:45:42.780Z,7.85
2018-01-13T12:46:42.774Z,7.83
2018-01-13T12:47:42.757Z,7.74
2018-01-13T12:48:42.744Z,7.63
2018-01-13T12:49:42.731Z,7.67
2018-01-13T12:50:42.714Z,7.64
2018-01-13T12:51:42.694Z,7.57
2018-01-13T12:52:42.684Z,7.50
2018-01-13T12:53:42.665Z,7.57
2018-01-13T12:54:42.656Z,7.40
2018-01-13T12:55:42.646Z,7.39
2018-01-13T12:56:42.629Z,7.43
2018-01-13T12:57:42.622Z,7.31
2018-01-13T12:58:42.599Z,7.27
2018-01-13T12:59:42.579Z,7.27
2018-01-13T13:00:42.592Z,7.39
2018-01-13T13:01:42.552Z,7.25
2018-01-13T13:02:42.566Z,7.30
2018-01-13T13:03:42.516Z,7.27
2018-01-13T13:04:42.500Z,7.28
2018-01-13T13:05:42.489Z,7.24
2018-01-13T13:06:42.482Z,7.30
2018-01-13T13:07:42.472Z,7.42
2018-01-13T13:08:42.459Z,7.30
2018-01-13T13:09:42.441Z,7.31
2018-01-13T13:10:42.420Z,7.30
2018-01-13T13:11:42.404Z,7.30
2018-01-13T13:12:42.391Z,7.30
2018-01-13T13:13:42.376Z,7.30
2018-01-13T13:14:42.351Z,7.23
2018-01-13T13:15:42.340Z,7.30
2018-01-13T13:16:42.321Z,7.31
2018-01-13T13:17:42.306Z,7.39
2018-01-13T13:18:42.323Z,7.43